createdAt,value
2023-04-23T00:01:57.668Z,100285.53
2023-04-23T00:04:24.829Z,100286.50
2023-04-23T00:06:51.743Z,100298.16
2023-04-23T00:09:18.526Z,100313.78
2023-04-23T00:11:45.362Z,100303.97
2023-04-23T00:14:12.583Z,100300.81
2023-04-23T00:16:39.825Z,100299.81
2023-04-23T00:19:06.886Z,100312.78
2023-04-23T00:21:33.824Z,100306.13
2023-04-23T00:24:00.648Z,100300.31
2023-04-23T00:26:27.374Z,100313.13
2023-04-23T00:28:54.323Z,100313.59
2023-04-23T00:31:22.819Z,100304.16
2023-04-23T00:33:49.752Z,100286.53
2023-04-23T00:36:16.577Z,100301.84
2023-04-23T00:38:43.586Z,100318.75
2023-04-23T00:41:11.109Z,100289.22
2023-04-23T00:43:38.080Z,100271.44
2023-04-23T00:46:05.323Z,100301.66
2023-04-23T00:48:32.042Z,100284.22
2023-04-23T00:51:00.556Z,100293.53
2023-04-23T00:53:27.637Z,100310.81
2023-04-23T00:55:54.755Z,100310.16
2023-04-23T00:58:21.746Z,100293.88
2023-04-23T01:00:52.351Z,100293.38
2023-04-23T01:03:21.948Z,100290.88
2023-04-23T01:05:49.531Z,100290.06
2023-04-23T01:08:16.886Z,100297.22
2023-04-23T01:10:47.442Z,100287.41
2023-04-23T01:13:14.254Z,100259.84
2023-04-23T01:15:41.182Z,100296.19
2023-04-23T01:18:08.030Z,100288.06
2023-04-23T01:20:35.512Z,100286.59
2023-04-23T01:23:05.774Z,100286.91
2023-04-23T01:25:32.739Z,100297.34
2023-04-23T01:27:59.514Z,100288.06
2023-04-23T01:30:27.415Z,100294.53
2023-04-23T01:32:57.428Z,100268.94
2023-04-23T01:35:24.534Z,100268.94
2023-04-23T01:37:52.697Z,100276.09
2023-04-23T01:40:20.370Z,100277.09
2023-04-23T01:42:48.270Z,100276.94
2023-04-23T01:45:15.162Z,100269.81
2023-04-23T01:47:42.170Z,100284.41
2023-04-23T01:50:09.536Z,100267.31
2023-04-23T01:52:36.730Z,100272.09
2023-04-23T01:55:03.816Z,100263.13
2023-04-23T01:57:30.787Z,100284.06
2023-04-23T02:00:09.524Z,100262.63
2023-04-23T02:02:36.479Z,100265.97
2023-04-23T02:05:04.821Z,100212.97
2023-04-23T02:07:32.403Z,100235.38
2023-04-23T02:09:59.215Z,100276.94
2023-04-23T02:12:26.342Z,100275.28
2023-04-23T02:14:53.666Z,100267.47
2023-04-23T02:17:23.180Z,100261.31
2023-04-23T02:19:50.212Z,100272.78
2023-04-23T02:22:17.989Z,100271.59
2023-04-23T02:24:44.716Z,100266.97
2023-04-23T02:27:11.455Z,100268.44
2023-04-23T02:29:38.447Z,100242.03
2023-04-23T02:32:06.320Z,100257.16
2023-04-23T02:34:33.231Z,100247.38
2023-04-23T02:37:00.188Z,100252.34
2023-04-23T02:39:26.939Z,100278.91
2023-04-23T02:41:53.830Z,100261.28
2023-04-23T02:44:20.847Z,100272.28
2023-04-23T02:46:47.607Z,100280.03
2023-04-23T02:49:14.852Z,100259.09
2023-04-23T02:51:41.804Z,100265.09
2023-04-23T02:54:08.570Z,100244.28
2023-04-23T02:56:35.320Z,100272.34
2023-04-23T02:59:02.215Z,100266.88
2023-04-23T03:01:29.044Z,100262.88
2023-04-23T03:03:55.972Z,100253.22
2023-04-23T03:06:22.922Z,100281.28
2023-04-23T03:08:49.657Z,100278.44
2023-04-23T03:11:16.415Z,100284.09
2023-04-23T03:13:43.300Z,100264.88
2023-04-23T03:16:10.248Z,100274.66
2023-04-23T03:18:37.150Z,100270.69
2023-04-23T03:21:04.233Z,100277.97
2023-04-23T03:23:30.976Z,100279.31
2023-04-23T03:25:58.027Z,100278.63
2023-04-23T03:28:25.128Z,100272.50
2023-04-23T03:30:51.976Z,100296.06
2023-04-23T03:33:18.766Z,100278.00
2023-04-23T03:35:46.297Z,100278.50
2023-04-23T03:38:13.102Z,100280.97
2023-04-23T03:40:39.854Z,100286.31
2023-04-23T03:43:06.765Z,100264.88
2023-04-23T03:45:33.490Z,100288.78
2023-04-23T03:48:00.258Z,100297.72
2023-04-23T03:50:27.197Z,100287.94
2023-04-23T03:52:54.053Z,100287.94
2023-04-23T03:55:21.111Z,100273.50
2023-04-23T03:57:48.013Z,100275.81
2023-04-23T04:00:14.914Z,100237.66
2023-04-23T04:02:41.929Z,100270.19
2023-04-23T04:05:11.447Z,100278.66
2023-04-23T04:07:38.409Z,100280.00
2023-04-23T04:10:06.588Z,100242.63
2023-04-23T04:12:33.474Z,100271.22
2023-04-23T04:15:00.381Z,100260.25
2023-04-23T04:17:27.125Z,100284.66
2023-04-23T04:19:53.966Z,100288.47
2023-04-23T04:22:20.822Z,100283.97
2023-04-23T04:24:47.731Z,100294.59
2023-04-23T04:27:15.011Z,100207.75
2023-04-23T04:29:41.730Z,100283.78
2023-04-23T04:32:09.433Z,100261.31
2023-04-23T04:34:39.593Z,100266.31
2023-04-23T04:37:06.804Z,100300.81
2023-04-23T04:39:33.574Z,100298.13
2023-04-23T04:42:03.016Z,100290.16
2023-04-23T04:44:30.825Z,100291.66
2023-04-23T04:46:57.851Z,100282.84
2023-04-23T04:49:24.791Z,100259.38
2023-04-23T04:51:51.503Z,100272.16
2023-04-23T04:54:18.357Z,100290.41
2023-04-23T04:56:45.259Z,100295.88
2023-04-23T04:59:11.968Z,100285.91
2023-04-23T05:01:38.674Z,100300.34
2023-04-23T05:04:06.290Z,100247.84
2023-04-23T05:06:33.468Z,100299.00
2023-04-23T05:09:00.499Z,100294.22
2023-04-23T05:11:27.598Z,100296.50
2023-04-23T05:13:54.347Z,100277.88
2023-04-23T05:16:21.512Z,100303.13
2023-04-23T05:18:48.686Z,100283.50
2023-04-23T05:21:15.705Z,100256.00
2023-04-23T05:23:42.608Z,100301.03
2023-04-23T05:26:09.357Z,100303.84
2023-04-23T05:28:36.443Z,100301.03
2023-04-23T05:31:03.693Z,100309.31
2023-04-23T05:33:33.589Z,100305.63
2023-04-23T05:36:03.205Z,100307.13
2023-04-23T05:38:30.061Z,100303.31
2023-04-23T05:40:56.862Z,100314.59
2023-04-23T05:43:23.617Z,100294.66
2023-04-23T05:45:50.484Z,100316.44
2023-04-23T05:48:17.255Z,100330.72
2023-04-23T05:50:44.080Z,100319.13
2023-04-23T05:53:11.078Z,100324.44
2023-04-23T05:55:37.864Z,100312.03
2023-04-23T05:58:05.270Z,100303.72
2023-04-23T06:00:32.663Z,100322.84
2023-04-23T06:02:59.630Z,100322.50
2023-04-23T06:05:26.627Z,100287.47
2023-04-23T06:07:54.376Z,100318.91
2023-04-23T06:10:21.127Z,100286.97
2023-04-23T06:12:48.018Z,100337.78
2023-04-23T06:15:14.901Z,100314.53
2023-04-23T06:17:41.666Z,100335.97
2023-04-23T06:20:10.912Z,100327.22
2023-04-23T06:22:37.672Z,100334.50
2023-04-23T06:25:05.705Z,100327.88
2023-04-23T06:27:33.984Z,100350.28
2023-04-23T06:30:00.878Z,100318.34
2023-04-23T06:32:27.619Z,100344.44
2023-04-23T06:35:00.702Z,100343.47
2023-04-23T06:37:29.764Z,100347.84
2023-04-23T06:39:57.011Z,100318.22
2023-04-23T06:42:23.856Z,100346.31
2023-04-23T06:44:52.111Z,100357.59
2023-04-23T06:47:19.815Z,100351.66
2023-04-23T06:49:46.583Z,100368.75
2023-04-23T06:52:13.425Z,100347.50
2023-04-23T06:54:40.449Z,100360.13
2023-04-23T06:57:07.348Z,100356.19
2023-04-23T06:59:34.142Z,100362.66
2023-04-23T07:02:01.104Z,100345.84
2023-04-23T07:04:28.052Z,100372.56
2023-04-23T07:06:55.453Z,100366.75
2023-04-23T07:09:23.382Z,100357.97
2023-04-23T07:11:50.348Z,100359.97
2023-04-23T07:14:17.210Z,100375.75
2023-04-23T07:16:44.213Z,100371.66
2023-04-23T07:19:11.003Z,100358.03
2023-04-23T07:21:37.704Z,100379.16
2023-04-23T07:24:07.428Z,100374.41
2023-04-23T07:26:34.911Z,100354.47
2023-04-23T07:29:02.013Z,100384.44
2023-04-23T07:31:28.968Z,100373.28
2023-04-23T07:33:56.340Z,100377.31
2023-04-23T07:36:23.226Z,100345.69
2023-04-23T07:38:51.271Z,100382.31
2023-04-23T07:41:18.496Z,100385.59
2023-04-23T07:43:45.412Z,100370.16
2023-04-23T07:46:12.491Z,100389.44
2023-04-23T07:48:39.576Z,100386.13
2023-04-23T07:51:06.828Z,100378.84
2023-04-23T07:53:33.839Z,100341.78
2023-04-23T07:56:00.662Z,100296.25
2023-04-23T07:58:27.499Z,100389.81
2023-04-23T08:00:54.404Z,100395.28
2023-04-23T08:03:21.346Z,100391.97
2023-04-23T08:05:48.282Z,100401.09
2023-04-23T08:08:15.175Z,100394.09
2023-04-23T08:10:42.041Z,100397.72
2023-04-23T08:13:08.909Z,100402.19
2023-04-23T08:15:36.270Z,100396.84
2023-04-23T08:18:04.427Z,100391.63
2023-04-23T08:20:32.545Z,100387.28
2023-04-23T08:22:59.685Z,100370.31
2023-04-23T08:25:26.600Z,100403.19
2023-04-23T08:27:53.377Z,100402.19
2023-04-23T08:30:20.610Z,100393.56
2023-04-23T08:32:51.146Z,100391.91
2023-04-23T08:35:18.206Z,100397.84
2023-04-23T08:37:45.347Z,100402.47
2023-04-23T08:40:13.233Z,100390.84
2023-04-23T08:42:51.601Z,100375.91
2023-04-23T08:45:18.797Z,100404.50
2023-04-23T08:47:45.713Z,100391.41
2023-04-23T08:50:13.878Z,100400.91
2023-04-23T08:52:42.071Z,100377.28
2023-04-23T08:55:12.323Z,100363.72
2023-04-23T08:57:40.167Z,100407.59
2023-04-23T09:00:11.106Z,100399.44
2023-04-23T09:02:40.106Z,100389.63
2023-04-23T09:05:07.393Z,100411.63
2023-04-23T09:07:34.957Z,100393.50
2023-04-23T09:10:02.945Z,100331.13
2023-04-23T09:12:29.942Z,100415.28
2023-04-23T09:14:56.686Z,100424.44
2023-04-23T09:17:23.876Z,100436.72
2023-04-23T09:19:54.123Z,100419.63
2023-04-23T09:22:46.572Z,100424.09
2023-04-23T09:25:15.616Z,100422.16
2023-04-23T09:27:42.420Z,100428.13
2023-04-23T09:30:10.966Z,100439.59
2023-04-23T09:32:42.805Z,100432.81
2023-04-23T09:35:10.801Z,100431.16
2023-04-23T09:37:37.667Z,100444.66
2023-04-23T09:40:08.804Z,100423.91
2023-04-23T09:42:36.059Z,100410.44
2023-04-23T09:45:11.629Z,100440.41
2023-04-23T09:47:39.190Z,100440.25
2023-04-23T09:50:10.490Z,100444.06
2023-04-23T09:52:40.539Z,100422.78
2023-04-23T09:55:08.129Z,100441.22
2023-04-23T09:57:41.721Z,100442.72
2023-04-23T10:00:20.017Z,100416.81
2023-04-23T10:02:49.470Z,100451.03
2023-04-23T10:07:50.182Z,100437.75
2023-04-23T10:10:18.441Z,100449.50
2023-04-23T10:12:54.398Z,100459.50
2023-04-23T10:15:22.305Z,100471.63
2023-04-23T10:17:51.320Z,100420.28
2023-04-23T10:20:18.464Z,100442.41
2023-04-23T10:22:46.782Z,100473.16
2023-04-23T10:25:13.650Z,100455.19
2023-04-23T10:27:52.820Z,100441.03
2023-04-23T10:30:21.410Z,100469.25
2023-04-23T10:32:48.964Z,100429.88
2023-04-23T10:35:15.799Z,100454.78
2023-04-23T10:37:43.012Z,100489.03
2023-04-23T10:40:14.239Z,100484.22
2023-04-23T10:42:41.460Z,100484.88
2023-04-23T10:47:48.876Z,100505.97
2023-04-23T10:50:26.573Z,100493.84
2023-04-23T10:52:54.455Z,100504.47
2023-04-23T10:55:22.993Z,100414.41
2023-04-23T10:58:06.273Z,100489.41
2023-04-23T11:00:44.112Z,100508.84
2023-04-23T11:03:31.623Z,100504.50
2023-04-23T11:06:04.443Z,100509.16
2023-04-23T11:08:34.376Z,100515.13
2023-04-23T11:11:02.167Z,100501.47
2023-04-23T11:13:29.774Z,100511.59
2023-04-23T11:16:22.138Z,100481.03
2023-04-23T11:19:06.509Z,100513.75
2023-04-23T11:22:01.311Z,100519.94
2023-04-23T11:24:37.173Z,100489.81
2023-04-23T11:27:06.464Z,100523.38
2023-04-23T11:29:33.690Z,100489.34
2023-04-23T11:32:03.909Z,100501.13
2023-04-23T11:34:31.904Z,100539.19
2023-04-23T11:36:59.413Z,100525.06
2023-04-23T11:39:27.366Z,100533.38
2023-04-23T11:41:54.846Z,100538.03
2023-04-23T11:44:21.918Z,100534.03
2023-04-23T11:46:49.721Z,100537.22
2023-04-23T11:49:19.905Z,100531.41
2023-04-23T11:51:46.850Z,100543.72
2023-04-23T11:54:13.970Z,100545.91
2023-04-23T11:56:41.348Z,100520.16
2023-04-23T11:59:08.255Z,100537.91
2023-04-23T12:01:48.448Z,100540.41
2023-04-23T12:04:17.140Z,100520.47
2023-04-23T12:06:44.958Z,100535.59
2023-04-23T12:09:13.191Z,100542.22
2023-04-23T12:11:41.387Z,100539.69
2023-04-23T12:14:08.755Z,100547.34
2023-04-23T12:16:39.766Z,100536.13
2023-04-23T12:19:17.280Z,100522.03
2023-04-23T12:22:08.868Z,100517.38
2023-04-23T12:24:52.342Z,100537.16
2023-04-23T12:27:20.634Z,100550.13
2023-04-23T12:29:51.288Z,100518.38
2023-04-23T12:32:19.372Z,100523.34
2023-04-23T12:34:55.933Z,100526.81
2023-04-23T12:37:30.318Z,100491.41
2023-04-23T12:39:59.578Z,100531.78
2023-04-23T12:42:26.314Z,100535.72
2023-04-23T12:44:55.856Z,100526.03
2023-04-23T12:47:22.970Z,100538.75
2023-04-23T12:49:53.309Z,100532.81
2023-04-23T12:52:21.214Z,100532.84
2023-04-23T12:54:52.324Z,100502.53
2023-04-23T12:57:23.118Z,100532.00
2023-04-23T12:59:50.433Z,100457.19
2023-04-23T13:02:17.378Z,100539.25
2023-04-23T13:04:44.174Z,100526.50
2023-04-23T13:07:10.915Z,100537.66
2023-04-23T13:09:37.750Z,100526.38
2023-04-23T13:12:04.635Z,100525.66
2023-04-23T13:14:32.510Z,100484.69
2023-04-23T13:16:59.508Z,100528.63
2023-04-23T13:19:26.503Z,100533.44
2023-04-23T13:21:53.881Z,100538.19
2023-04-23T13:24:20.871Z,100529.94
2023-04-23T13:26:47.592Z,100535.25
2023-04-23T13:29:14.454Z,100529.22
2023-04-23T13:31:41.388Z,100513.56
2023-04-23T13:34:08.917Z,100536.69
2023-04-23T13:36:35.759Z,100542.59
2023-04-23T13:39:03.236Z,100532.91
2023-04-23T13:41:30.164Z,100520.47
2023-04-23T13:43:56.926Z,100543.09
2023-04-23T13:46:23.775Z,100513.38
2023-04-23T13:48:50.632Z,100528.06
2023-04-23T13:51:33.097Z,100529.72
2023-04-23T13:54:01.529Z,100529.47
2023-04-23T13:56:30.247Z,100530.19
2023-04-23T14:01:32.091Z,100546.16
2023-04-23T14:03:58.979Z,100515.00
2023-04-23T14:06:25.988Z,100562.31
2023-04-23T14:08:52.774Z,100554.75
2023-04-23T14:11:19.551Z,100555.19
2023-04-23T14:13:46.412Z,100554.28
2023-04-23T14:16:13.184Z,100560.16
2023-04-23T14:18:39.955Z,100553.97
2023-04-23T14:21:07.594Z,100559.53
2023-04-23T14:23:44.361Z,100550.50
2023-04-23T14:26:11.209Z,100562.69
2023-04-23T14:28:44.908Z,100554.59
2023-04-23T14:31:11.827Z,100548.47
2023-04-23T14:33:38.578Z,100559.03
2023-04-23T14:36:05.429Z,100525.91
2023-04-23T14:38:32.269Z,100548.88
2023-04-23T14:40:59.002Z,100571.84
2023-04-23T14:43:25.884Z,100581.06
2023-04-23T14:45:52.899Z,100565.78
2023-04-23T14:48:19.889Z,100583.47
2023-04-23T14:50:46.619Z,100586.72
2023-04-23T14:53:13.609Z,100576.88
2023-04-23T14:55:42.912Z,100580.06
2023-04-23T14:58:09.841Z,100581.72
2023-04-23T15:00:36.667Z,100580.06
2023-04-23T15:03:08.524Z,100555.59
2023-04-23T15:05:35.541Z,100572.75
2023-04-23T15:08:02.348Z,100563.94
2023-04-23T15:10:29.634Z,100578.09
2023-04-23T15:13:10.182Z,100572.47
2023-04-23T15:15:49.936Z,100566.66
2023-04-23T15:18:17.317Z,100579.28
2023-04-23T15:20:44.576Z,100548.00
2023-04-23T15:23:11.953Z,100583.06
2023-04-23T15:25:39.538Z,100575.00
2023-04-23T15:28:07.357Z,100581.31
2023-04-23T15:30:34.201Z,100555.56
2023-04-23T15:33:01.147Z,100586.81
2023-04-23T15:35:28.289Z,100543.41
2023-04-23T15:37:55.111Z,100570.53
2023-04-23T15:40:21.924Z,100588.84
2023-04-23T15:42:50.186Z,100583.38
2023-04-23T15:45:17.293Z,100585.59
2023-04-23T15:47:44.310Z,100549.97
2023-04-23T15:50:11.760Z,100583.38
2023-04-23T15:52:39.753Z,100582.69
2023-04-23T15:55:07.049Z,100524.47
2023-04-23T15:57:33.886Z,100585.06
2023-04-23T16:00:01.445Z,100551.13
2023-04-23T16:02:29.077Z,100547.28
2023-04-23T16:04:56.497Z,100588.97
2023-04-23T16:07:23.384Z,100584.25
2023-04-23T16:09:50.262Z,100583.09
2023-04-23T16:12:17.257Z,100547.56
2023-04-23T16:14:45.828Z,100589.16
2023-04-23T16:17:12.589Z,100591.00
2023-04-23T16:19:40.521Z,100589.53
2023-04-23T16:22:07.471Z,100573.09
2023-04-23T16:24:34.833Z,100584.13
2023-04-23T16:27:02.684Z,100586.59
2023-04-23T16:29:29.565Z,100590.75
2023-04-23T16:31:56.349Z,100587.91
2023-04-23T16:34:23.209Z,100585.59
2023-04-23T16:36:49.923Z,100584.09
2023-04-23T16:39:16.701Z,100586.41
2023-04-23T16:41:43.630Z,100591.09
2023-04-23T16:44:10.398Z,100577.91
2023-04-23T16:46:37.405Z,100590.09
2023-04-23T16:49:04.326Z,100582.47
2023-04-23T16:51:32.433Z,100598.78
2023-04-23T16:53:59.319Z,100592.97
2023-04-23T16:56:26.293Z,100586.31
2023-04-23T16:58:53.174Z,100588.66
2023-04-23T17:01:19.939Z,100591.69
2023-04-23T17:03:47.186Z,100596.16
2023-04-23T17:06:29.402Z,100572.38
2023-04-23T17:09:00.316Z,100588.19
2023-04-23T17:11:27.914Z,100576.28
2023-04-23T17:13:54.991Z,100602.41
2023-04-23T17:16:21.901Z,100609.56
2023-04-23T17:18:48.821Z,100593.94
2023-04-23T17:21:15.685Z,100595.56
2023-04-23T17:23:42.538Z,100585.44
2023-04-23T17:26:09.454Z,100614.25
2023-04-23T17:28:36.270Z,100612.91
2023-04-23T17:31:03.577Z,100512.50
2023-04-23T17:33:30.426Z,100607.25
2023-04-23T17:35:57.331Z,100610.59
2023-04-23T17:38:24.843Z,100619.28
2023-04-23T17:40:54.603Z,100591.19
2023-04-23T17:43:21.826Z,100622.78
2023-04-23T17:45:48.835Z,100618.50
2023-04-23T17:48:16.071Z,100617.97
2023-04-23T17:50:43.035Z,100609.81
2023-04-23T17:53:10.292Z,100622.81
2023-04-23T17:55:37.041Z,100593.03
2023-04-23T17:58:05.932Z,100611.47
2023-04-23T18:00:37.510Z,100603.84
2023-04-23T18:03:04.717Z,100557.28
2023-04-23T18:05:31.728Z,100617.78
2023-04-23T18:07:58.508Z,100589.69
2023-04-23T18:10:25.412Z,100576.19
2023-04-23T18:12:52.373Z,100612.31
2023-04-23T18:15:19.490Z,100619.97
2023-04-23T18:17:47.507Z,100608.47
2023-04-23T18:20:14.618Z,100616.13
2023-04-23T18:22:41.739Z,100575.53
2023-04-23T18:25:10.166Z,100608.31
2023-04-23T18:27:37.071Z,100611.97
2023-04-23T18:30:05.710Z,100612.44
2023-04-23T18:32:37.485Z,100611.28
2023-04-23T18:35:08.284Z,100595.59
2023-04-23T18:37:48.314Z,100608.38
2023-04-23T18:40:15.237Z,100621.34
2023-04-23T18:42:42.110Z,100593.00
2023-04-23T18:45:10.797Z,100618.47
2023-04-23T18:47:45.431Z,100563.53
2023-04-23T18:50:37.219Z,100617.94
2023-04-23T18:53:04.712Z,100612.66
2023-04-23T18:55:31.581Z,100621.13
2023-04-23T18:57:59.033Z,100581.66
2023-04-23T19:00:25.956Z,100624.78
2023-04-23T19:02:52.840Z,100620.59
2023-04-23T19:05:20.084Z,100617.44
2023-04-23T19:07:48.505Z,100589.78
2023-04-23T19:10:16.793Z,100578.31
2023-04-23T19:12:44.355Z,100618.13
2023-04-23T19:15:11.607Z,100569.81
2023-04-23T19:17:38.721Z,100620.06
2023-04-23T19:20:09.712Z,100614.78
2023-04-23T19:22:36.865Z,100629.72
2023-04-23T19:25:04.699Z,100627.25
2023-04-23T19:27:31.535Z,100628.38
2023-04-23T19:29:59.304Z,100616.06
2023-04-23T19:32:26.202Z,100634.66
2023-04-23T19:34:53.077Z,100616.06
2023-04-23T19:37:19.880Z,100582.75
2023-04-23T19:39:46.630Z,100608.41
2023-04-23T19:42:13.516Z,100623.53
2023-04-23T19:44:40.248Z,100627.84
2023-04-23T19:47:07.094Z,100637.78
2023-04-23T19:49:33.974Z,100635.44
2023-04-23T19:52:01.961Z,100644.41
2023-04-23T19:54:28.877Z,100611.56
2023-04-23T19:56:55.741Z,100643.59
2023-04-23T19:59:22.529Z,100633.75
2023-04-23T20:01:49.406Z,100642.75
2023-04-23T20:04:16.552Z,100620.28
2023-04-23T20:06:43.567Z,100653.59
2023-04-23T20:09:18.362Z,100639.94
2023-04-23T20:11:45.939Z,100641.66
2023-04-23T20:14:15.643Z,100622.94
2023-04-23T20:16:42.370Z,100646.94
2023-04-23T20:19:11.963Z,100662.72
2023-04-23T20:21:39.228Z,100626.94
2023-04-23T20:24:07.649Z,100641.03
2023-04-23T20:26:35.430Z,100650.56
2023-04-23T20:29:02.250Z,100669.22
2023-04-23T20:31:29.121Z,100671.72
2023-04-23T20:33:56.414Z,100675.88
2023-04-23T20:36:28.741Z,100658.88
2023-04-23T20:38:58.371Z,100663.94
2023-04-23T20:41:29.460Z,100665.59
2023-04-23T20:43:57.161Z,100635.28
2023-04-23T20:46:24.851Z,100641.94
2023-04-23T20:48:53.227Z,100664.88
2023-04-23T20:51:20.593Z,100670.91
2023-04-23T20:53:47.527Z,100654.41
2023-04-23T20:56:14.447Z,100667.06
2023-04-23T20:58:41.631Z,100628.94
2023-04-23T21:01:11.568Z,100662.91
2023-04-23T21:03:39.022Z,100666.59
2023-04-23T21:06:06.868Z,100607.03
2023-04-23T21:08:33.836Z,100649.66
2023-04-23T21:11:00.602Z,100646.00
2023-04-23T21:13:27.334Z,100637.19
2023-04-23T21:15:54.211Z,100638.66
2023-04-23T21:18:21.042Z,100658.31
2023-04-23T21:20:47.822Z,100664.25
2023-04-23T21:23:14.630Z,100657.47
2023-04-23T21:25:41.428Z,100669.59
2023-04-23T21:28:08.204Z,100667.91
2023-04-23T21:30:50.360Z,100665.94
2023-04-23T21:33:18.092Z,100655.47
2023-04-23T21:35:44.934Z,100663.94
2023-04-23T21:38:11.992Z,100648.78
2023-04-23T21:40:38.903Z,100666.13
2023-04-23T21:43:06.197Z,100653.66
2023-04-23T21:45:34.382Z,100662.13
2023-04-23T21:48:01.813Z,100641.66
2023-04-23T21:50:29.311Z,100652.50
2023-04-23T21:52:58.679Z,100655.00
2023-04-23T21:55:29.438Z,100637.88
2023-04-23T21:58:03.156Z,100656.16
2023-04-23T22:00:41.145Z,100648.00
2023-04-23T22:03:09.182Z,100642.66
2023-04-23T22:05:36.379Z,100648.13
2023-04-23T22:08:03.412Z,100644.50
2023-04-23T22:10:30.200Z,100647.00
2023-04-23T22:12:57.200Z,100645.31
2023-04-23T22:15:24.171Z,100623.66
2023-04-23T22:17:51.026Z,100651.81
2023-04-23T22:20:19.019Z,100645.31
2023-04-23T22:22:45.985Z,100645.97
2023-04-23T22:25:13.195Z,100640.28
2023-04-23T22:27:41.174Z,100571.22
2023-04-23T22:30:09.376Z,100620.84
2023-04-23T22:32:36.539Z,100637.50
2023-04-23T22:35:03.514Z,100607.53
2023-04-23T22:37:31.538Z,100640.84
2023-04-23T22:39:58.494Z,100631.34
2023-04-23T22:42:25.436Z,100633.38
2023-04-23T22:44:52.359Z,100625.88
2023-04-23T22:47:19.138Z,100644.03
2023-04-23T22:49:46.786Z,100630.41
2023-04-23T22:52:14.570Z,100643.38
2023-04-23T22:54:42.005Z,100632.06
2023-04-23T22:57:09.476Z,100630.41
2023-04-23T22:59:36.367Z,100637.53
2023-04-23T23:02:03.116Z,100637.88
2023-04-23T23:04:30.049Z,100645.00
2023-04-23T23:06:56.829Z,100643.00
2023-04-23T23:09:23.689Z,100640.31
2023-04-23T23:11:50.394Z,100633.34
2023-04-23T23:14:17.536Z,100650.97
2023-04-23T23:16:44.271Z,100631.00
2023-04-23T23:19:12.462Z,100642.00
2023-04-23T23:21:39.859Z,100642.00
2023-04-23T23:24:06.748Z,100641.94
2023-04-23T23:26:33.734Z,100641.66
2023-04-23T23:29:00.759Z,100561.69
2023-04-23T23:31:28.674Z,100644.50
2023-04-23T23:33:55.710Z,100649.31
2023-04-23T23:36:22.588Z,100640.00
2023-04-23T23:38:50.934Z,100624.34
2023-04-23T23:41:17.967Z,100649.31
2023-04-23T23:43:44.670Z,100632.00
2023-04-23T23:46:12.441Z,100609.19
2023-04-23T23:48:39.319Z,100647.00
2023-04-23T23:51:06.161Z,100641.34
2023-04-23T23:53:32.874Z,100625.53
2023-04-23T23:56:00.533Z,100640.53
2023-04-23T23:58:29.395Z,100631.00
